Terminal Aerodrome Forecast
Issued by NWS Milwaukee/Sullivan, WI

Home | Current Version | Previous Version | Text Only | Print | Product List | Glossary On
Versions: 1 2 3 4 5 6 7 8 9 10 11 12 13 14 15 16 17 18 19 20 21 22 23 24 25 26 27 28 29 30 31 32 33
000
FTUS43 KMKX 281743
TAFMKE
TAF
KMKE 281743Z 2818/2924 15006KT P6SM SCT080 BKN250
     FM282100 12007KT P6SM VCSH BKN045 BKN060
     FM290100 03006KT P6SM -RA OVC025
     FM290300 02011KT P6SM VCSH BKN025
     FM290900 02011KT P6SM BKN035
     FM291700 04016KT P6SM OVC050=

USA.gov is the U.S. government's official web portal to all federal, state and local government web resources and services.